Time;durP1;ratioP1;P1;durP2;ratioP2;P2;SDS_P1;SDS_P2;PMS_P1;PMS_P2;Temp;Humidity;BMP_temperature;BMP_pressure;BME280_temperature;BME280_humidity;BME280_pressure;Samples;Min_cycle;Max_cycle;Signal;HPM_P1;HPM_P2
2023/09/28 00:00:39;;;;;;;8.47;7.53;;;;;;;;;;5050715;28;20052;-61
2023/09/28 00:03:09;;;;;;;9.73;7.03;;;;;;;;;;5049195;28;20052;-60
2023/09/28 00:05:35;;;;;;;10.47;7.80;;;;;;;;;;5049812;28;20427;-61
2023/09/28 00:08:04;;;;;;;9.97;7.27;;;;;;;;;;5050349;28;20142;-61
2023/09/28 00:10:30;;;;;;;9.27;7.13;;;;;;;;;;5050536;28;20566;-61
2023/09/28 00:12:56;;;;;;;11.80;7.17;;;;;;;;;;5050139;28;20051;-61
2023/09/28 00:15:24;;;;;;;12.50;6.97;;;;;;;;;;5050035;28;20127;-61
2023/09/28 00:17:54;;;;;;;9.53;7.00;;;;;;;;;;5050022;28;20080;-61
2023/09/28 00:20:23;;;;;;;11.27;6.80;;;;;;;;;;5055375;28;20041;-61
2023/09/28 00:22:51;;;;;;;10.47;7.60;;;;;;;;;;5054682;28;20052;-61
2023/09/28 00:25:17;;;;;;;10.27;6.83;;;;;;;;;;5068987;28;20127;-61
2023/09/28 00:27:44;;;;;;;8.57;6.90;;;;;;;;;;5057913;28;20056;-61
2023/09/28 00:30:18;;;;;;;10.40;6.90;;;;;;;;;;5052065;28;20135;-60
2023/09/28 00:32:44;;;;;;;11.13;7.23;;;;;;;;;;5069829;28;20048;-61
2023/09/28 00:35:10;;;;;;;11.73;7.03;;;;;;;;;;5055922;28;20067;-61
2023/09/28 00:37:36;;;;;;;12.50;6.53;;;;;;;;;;5049255;28;20154;-61
2023/09/28 00:40:19;;;;;;;8.47;6.37;;;;;;;;;;5049946;28;20049;-61
2023/09/28 00:42:46;;;;;;;8.27;6.70;;;;;;;;;;5049565;28;20518;-61
2023/09/28 00:45:12;;;;;;;10.00;5.77;;;;;;;;;;5049462;28;20076;-61
2023/09/28 00:47:39;;;;;;;8.37;6.20;;;;;;;;;;5063731;28;20045;-61
2023/09/28 00:50:14;;;;;;;10.40;6.10;;;;;;;;;;5069523;28;20092;-61
2023/09/28 00:52:41;;;;;;;7.10;5.20;;;;;;;;;;5069531;28;20120;-61
2023/09/28 00:55:07;;;;;;;7.37;5.07;;;;;;;;;;5069350;28;20540;-61
2023/09/28 00:57:33;;;;;;;7.17;5.50;;;;;;;;;;5069196;28;20414;-61
2023/09/28 01:00:01;;;;;;;7.37;5.03;;;;;;;;;;5062808;28;20427;-61
2023/09/28 01:02:27;;;;;;;7.93;5.13;;;;;;;;;;5058121;28;20547;-61
2023/09/28 01:04:53;;;;;;;6.90;5.47;;;;;;;;;;5068885;28;20453;-61
2023/09/28 01:07:26;;;;;;;8.87;5.20;;;;;;;;;;5069256;28;20079;-61
2023/09/28 01:09:53;;;;;;;6.40;4.63;;;;;;;;;;5068593;28;20510;-61
2023/09/28 01:12:20;;;;;;;8.00;5.17;;;;;;;;;;5069501;28;20040;-61
2023/09/28 01:14:47;;;;;;;7.70;5.27;;;;;;;;;;5067053;28;20167;-61
2023/09/28 01:17:13;;;;;;;8.57;4.60;;;;;;;;;;5068450;28;20083;-61
2023/09/28 01:19:40;;;;;;;7.60;4.53;;;;;;;;;;5068767;28;20052;-61
2023/09/28 01:22:12;;;;;;;7.50;4.63;;;;;;;;;;5068851;28;20163;-61
2023/09/28 01:24:38;;;;;;;7.88;4.72;;;;;;;;;;5068650;28;20036;-61
2023/09/28 01:27:06;;;;;;;8.00;4.77;;;;;;;;;;5058066;28;20518;-61
2023/09/28 01:29:32;;;;;;;5.97;4.67;;;;;;;;;;5048706;28;20059;-61
2023/09/28 01:31:58;;;;;;;6.77;4.40;;;;;;;;;;5048624;28;20037;-61
2023/09/28 01:34:24;;;;;;;6.20;4.63;;;;;;;;;;5048858;28;20045;-61
2023/09/28 01:36:50;;;;;;;8.37;4.33;;;;;;;;;;5047902;28;20053;-61
2023/09/28 01:39:16;;;;;;;6.53;4.93;;;;;;;;;;5047923;28;20426;-60
2023/09/28 01:41:42;;;;;;;8.97;4.87;;;;;;;;;;5048866;28;20045;-61
2023/09/28 01:44:08;;;;;;;7.17;5.03;;;;;;;;;;5059482;28;20048;-61
2023/09/28 01:46:34;;;;;;;9.47;5.00;;;;;;;;;;5067630;28;20491;-61
2023/09/28 01:49:00;;;;;;;6.47;4.97;;;;;;;;;;5068306;28;20102;-60
2023/09/28 01:51:26;;;;;;;9.67;5.47;;;;;;;;;;5068364;28;20048;-60
2023/09/28 01:53:52;;;;;;;6.57;4.73;;;;;;;;;;5067943;28;20052;-61
2023/09/28 01:56:18;;;;;;;10.00;5.87;;;;;;;;;;5068813;28;20456;-61
2023/09/28 01:58:44;;;;;;;8.97;5.17;;;;;;;;;;5067871;28;20590;-61
2023/09/28 02:01:20;;;;;;;10.23;4.90;;;;;;;;;;5068039;28;20044;-61
2023/09/28 02:03:47;;;;;;;9.77;5.30;;;;;;;;;;5068342;28;20074;-61
2023/09/28 02:06:14;;;;;;;8.80;4.83;;;;;;;;;;5049418;28;20056;-61
2023/09/28 02:08:40;;;;;;;7.97;5.50;;;;;;;;;;5047956;28;20182;-60
2023/09/28 02:11:06;;;;;;;7.43;5.37;;;;;;;;;;5048158;28;20929;-60
2023/09/28 02:13:32;;;;;;;8.80;5.03;;;;;;;;;;5047484;28;20040;-61
2023/09/28 02:15:58;;;;;;;11.23;5.30;;;;;;;;;;5048321;28;20534;-61
2023/09/28 02:18:24;;;;;;;9.47;5.83;;;;;;;;;;5048288;28;20075;-61
2023/09/28 02:20:50;;;;;;;7.30;5.73;;;;;;;;;;5047958;28;20068;-61
2023/09/28 02:23:16;;;;;;;10.80;5.97;;;;;;;;;;5047638;28;20538;-61
2023/09/28 02:25:42;;;;;;;8.50;5.60;;;;;;;;;;5047759;28;20041;-61
2023/09/28 02:28:09;;;;;;;8.80;6.47;;;;;;;;;;5047686;28;20048;-60
2023/09/28 02:30:35;;;;;;;8.03;5.17;;;;;;;;;;5047373;28;20045;-61
2023/09/28 02:33:01;;;;;;;8.17;5.53;;;;;;;;;;5047800;28;20045;-61
2023/09/28 02:35:28;;;;;;;10.17;6.53;;;;;;;;;;5047348;28;20135;-61
2023/09/28 02:37:54;;;;;;;12.30;6.47;;;;;;;;;;5051948;28;20078;-60
2023/09/28 02:40:21;;;;;;;11.67;6.70;;;;;;;;;;5067851;28;20057;-61
2023/09/28 02:42:50;;;;;;;9.90;6.67;;;;;;;;;;5067469;28;20070;-61
2023/09/28 02:45:16;;;;;;;7.60;6.67;;;;;;;;;;5068158;28;20044;-61
2023/09/28 02:47:43;;;;;;;10.03;6.17;;;;;;;;;;5056994;28;20036;-60
2023/09/28 02:50:09;;;;;;;7.80;6.87;;;;;;;;;;5047580;28;20037;-61
2023/09/28 02:52:36;;;;;;;9.97;6.97;;;;;;;;;;5047860;28;20515;-61
2023/09/28 02:55:05;;;;;;;9.70;7.30;;;;;;;;;;5047429;28;20041;-61
2023/09/28 02:57:31;;;;;;;7.60;6.80;;;;;;;;;;5048040;28;20045;-61
2023/09/28 02:59:58;;;;;;;10.10;7.17;;;;;;;;;;5059597;28;20059;-61
2023/09/28 03:02:24;;;;;;;9.73;7.13;;;;;;;;;;5067926;28;20126;-60
2023/09/28 03:04:50;;;;;;;10.27;6.60;;;;;;;;;;5067892;28;20533;-61
2023/09/28 03:07:16;;;;;;;10.87;6.80;;;;;;;;;;5067897;28;20049;-61
2023/09/28 03:09:42;;;;;;;8.73;6.73;;;;;;;;;;5067764;28;20487;-61
2023/09/28 03:12:08;;;;;;;9.00;6.77;;;;;;;;;;5067746;28;20048;-60
2023/09/28 03:14:34;;;;;;;10.07;6.73;;;;;;;;;;5047735;28;20053;-61
2023/09/28 03:17:00;;;;;;;9.43;6.63;;;;;;;;;;5047706;28;20541;-61
2023/09/28 03:19:26;;;;;;;10.57;6.63;;;;;;;;;;5047547;28;20168;-61
2023/09/28 03:21:53;;;;;;;11.77;6.93;;;;;;;;;;5047498;28;20045;-61
2023/09/28 03:24:19;;;;;;;9.93;7.23;;;;;;;;;;5047574;28;20087;-61
2023/09/28 03:26:45;;;;;;;11.37;7.20;;;;;;;;;;5047244;28;20072;-61
2023/09/28 03:29:11;;;;;;;9.80;6.97;;;;;;;;;;5047475;28;20041;-61
2023/09/28 03:31:37;;;;;;;9.00;7.07;;;;;;;;;;5047525;28;20479;-61
2023/09/28 03:34:03;;;;;;;9.33;7.13;;;;;;;;;;5047624;28;20049;-60
2023/09/28 03:36:32;;;;;;;9.27;7.20;;;;;;;;;;5046672;28;20043;-60
2023/09/28 03:38:58;;;;;;;10.37;6.67;;;;;;;;;;5047336;28;20057;-61
2023/09/28 03:41:24;;;;;;;9.57;6.87;;;;;;;;;;5050418;28;20052;-61
2023/09/28 03:43:50;;;;;;;8.90;6.20;;;;;;;;;;5050533;28;20079;-61
2023/09/28 03:46:19;;;;;;;8.03;6.23;;;;;;;;;;5051183;28;20505;-61
2023/09/28 03:48:45;;;;;;;9.93;6.60;;;;;;;;;;5068364;28;20051;-61
2023/09/28 03:51:11;;;;;;;8.60;6.70;;;;;;;;;;5070332;28;20044;-61
2023/09/28 03:53:40;;;;;;;12.70;6.50;;;;;;;;;;5070799;28;20044;-61
2023/09/28 03:56:07;;;;;;;15.17;7.17;;;;;;;;;;5070570;28;20098;-61
2023/09/28 03:58:33;;;;;;;12.50;6.73;;;;;;;;;;5070781;28;20444;-61
2023/09/28 04:00:59;;;;;;;18.60;7.13;;;;;;;;;;5071057;28;20430;-61
2023/09/28 04:03:25;;;;;;;8.50;6.70;;;;;;;;;;5069561;28;20052;-61
2023/09/28 04:05:51;;;;;;;10.00;7.40;;;;;;;;;;5070213;28;20078;-61
2023/09/28 04:08:17;;;;;;;10.63;8.00;;;;;;;;;;5056708;28;20045;-62
2023/09/28 04:10:43;;;;;;;9.43;7.63;;;;;;;;;;5050538;28;20170;-61
2023/09/28 04:13:09;;;;;;;12.93;7.87;;;;;;;;;;5050670;28;20045;-61
2023/09/28 04:15:35;;;;;;;11.40;7.87;;;;;;;;;;5050264;28;20083;-62
2023/09/28 04:18:01;;;;;;;10.53;8.20;;;;;;;;;;5050207;28;20044;-61
2023/09/28 04:20:27;;;;;;;13.47;7.90;;;;;;;;;;5049833;28;20052;-61
2023/09/28 04:22:53;;;;;;;11.00;8.37;;;;;;;;;;5050304;28;20454;-61
2023/09/28 04:25:21;;;;;;;10.27;8.17;;;;;;;;;;5050335;28;20067;-61
2023/09/28 04:27:48;;;;;;;18.93;8.97;;;;;;;;;;5050072;28;20049;-61
2023/09/28 04:30:14;;;;;;;16.57;9.73;;;;;;;;;;5050798;28;20074;-61
2023/09/28 04:32:40;;;;;;;14.93;9.40;;;;;;;;;;5049939;28;20041;-61
2023/09/28 04:35:10;;;;;;;11.07;8.53;;;;;;;;;;5049563;28;20056;-61
2023/09/28 04:37:37;;;;;;;17.03;9.20;;;;;;;;;;5063541;28;20063;-61
2023/09/28 04:40:03;;;;;;;13.07;9.77;;;;;;;;;;5063020;28;20500;-61
2023/09/28 04:42:29;;;;;;;13.60;9.20;;;;;;;;;;5049657;28;20499;-61
2023/09/28 04:44:55;;;;;;;16.13;9.90;;;;;;;;;;5049764;28;20495;-61
2023/09/28 04:47:21;;;;;;;16.60;10.07;;;;;;;;;;5049558;28;20045;-61
2023/09/28 04:49:48;;;;;;;17.33;10.23;;;;;;;;;;5047905;28;20053;-61
2023/09/28 04:52:14;;;;;;;11.53;9.57;;;;;;;;;;5048392;28;20111;-61
2023/09/28 04:54:40;;;;;;;15.13;10.67;;;;;;;;;;5049260;28;20127;-61
2023/09/28 04:57:06;;;;;;;15.90;11.80;;;;;;;;;;5049215;28;20064;-61
2023/09/28 04:59:38;;;;;;;15.97;10.93;;;;;;;;;;5049087;28;20040;-61
2023/09/28 05:02:04;;;;;;;13.80;10.40;;;;;;;;;;5049831;28;20041;-61
2023/09/28 05:04:30;;;;;;;12.63;9.70;;;;;;;;;;5049398;28;20414;-61
2023/09/28 05:06:56;;;;;;;12.10;10.27;;;;;;;;;;5049732;28;20041;-61
2023/09/28 05:09:23;;;;;;;14.20;11.20;;;;;;;;;;5049004;28;20045;-61
2023/09/28 05:11:49;;;;;;;13.57;10.23;;;;;;;;;;5049171;28;20045;-61
2023/09/28 05:14:15;;;;;;;12.60;10.90;;;;;;;;;;5049258;28;20048;-61
2023/09/28 05:16:41;;;;;;;15.93;11.93;;;;;;;;;;5048870;28;20040;-61
2023/09/28 05:19:07;;;;;;;16.73;11.70;;;;;;;;;;5049007;28;20052;-61
2023/09/28 05:21:33;;;;;;;14.90;10.57;;;;;;;;;;5049315;28;20041;-61
2023/09/28 05:23:59;;;;;;;20.50;10.80;;;;;;;;;;5057735;28;20048;-62
2023/09/28 05:26:25;;;;;;;22.83;10.67;;;;;;;;;;5053897;28;20040;-61
2023/09/28 05:28:51;;;;;;;15.10;10.80;;;;;;;;;;5051112;28;20051;-60
2023/09/28 05:31:17;;;;;;;17.40;10.67;;;;;;;;;;5063247;28;20029;-61
2023/09/28 05:33:43;;;;;;;13.80;10.00;;;;;;;;;;5063475;28;20056;-61
2023/09/28 05:36:09;;;;;;;17.07;9.77;;;;;;;;;;5069003;28;20170;-61
2023/09/28 05:38:36;;;;;;;11.60;9.07;;;;;;;;;;5068701;28;20076;-61
2023/09/28 05:41:02;;;;;;;12.63;9.17;;;;;;;;;;5068127;28;20045;-61
2023/09/28 05:43:28;;;;;;;13.77;8.73;;;;;;;;;;5068474;28;20078;-61
2023/09/28 05:45:54;;;;;;;18.57;8.83;;;;;;;;;;5060113;28;20049;-65
2023/09/28 05:48:19;;;;;;;17.47;9.40;;;;;;;;;;5048539;28;20102;-64
2023/09/28 05:50:46;;;;;;;15.30;8.70;;;;;;;;;;5048253;28;20045;-61
2023/09/28 05:53:12;;;;;;;14.37;8.13;;;;;;;;;;5048056;28;20080;-61
2023/09/28 05:55:37;;;;;;;9.87;7.83;;;;;;;;;;5048350;28;20044;-61
2023/09/28 05:58:04;;;;;;;16.70;7.67;;;;;;;;;;5048112;28;20059;-61
2023/09/28 06:00:30;;;;;;;12.80;7.20;;;;;;;;;;5048415;28;20484;-60
2023/09/28 06:02:56;;;;;;;11.60;7.73;;;;;;;;;;5050257;28;20101;-61
2023/09/28 06:05:22;;;;;;;18.27;7.40;;;;;;;;;;5050877;28;20127;-62
2023/09/28 06:07:48;;;;;;;14.80;7.23;;;;;;;;;;5068161;28;20128;-61
2023/09/28 06:10:14;;;;;;;17.43;8.40;;;;;;;;;;5068228;28;20040;-61
2023/09/28 06:12:40;;;;;;;17.17;8.00;;;;;;;;;;5067591;28;20083;-61
2023/09/28 06:15:09;;;;;;;17.57;7.40;;;;;;;;;;5066657;28;20052;-61
2023/09/28 06:17:35;;;;;;;10.53;6.37;;;;;;;;;;5067547;28;20510;-61
2023/09/28 06:20:01;;;;;;;19.87;7.30;;;;;;;;;;5068023;28;20049;-61
2023/09/28 06:22:27;;;;;;;11.90;5.70;;;;;;;;;;5067944;28;20052;-61
2023/09/28 06:24:54;;;;;;;16.30;6.13;;;;;;;;;;5067586;28;20048;-61
2023/09/28 06:27:21;;;;;;;20.00;6.90;;;;;;;;;;5066475;28;20095;-61
2023/09/28 06:29:52;;;;;;;21.93;5.90;;;;;;;;;;5051257;28;20056;-61
2023/09/28 06:32:18;;;;;;;19.73;5.90;;;;;;;;;;5047679;28;20057;-61
2023/09/28 06:34:44;;;;;;;23.37;6.27;;;;;;;;;;5047687;28;20495;-61
2023/09/28 06:37:10;;;;;;;16.63;5.70;;;;;;;;;;5047756;28;20080;-61
2023/09/28 06:39:37;;;;;;;17.90;5.00;;;;;;;;;;5047386;28;20118;-61
2023/09/28 06:42:04;;;;;;;20.83;6.53;;;;;;;;;;5047608;28;20056;-61
2023/09/28 06:44:30;;;;;;;21.50;5.80;;;;;;;;;;5047596;28;20671;-61
2023/09/28 06:46:57;;;;;;;23.07;5.97;;;;;;;;;;5049543;28;20045;-61
2023/09/28 06:49:23;;;;;;;19.10;5.93;;;;;;;;;;5060254;28;20489;-61
2023/09/28 06:51:49;;;;;;;24.77;5.43;;;;;;;;;;5047648;28;20132;-61
2023/09/28 06:54:16;;;;;;;16.33;4.67;;;;;;;;;;5047811;28;20071;-61
2023/09/28 06:56:42;;;;;;;18.87;5.97;;;;;;;;;;5047517;28;20045;-61
2023/09/28 06:59:08;;;;;;;21.43;5.80;;;;;;;;;;5047165;28;20049;-61
2023/09/28 07:01:35;;;;;;;15.73;4.97;;;;;;;;;;5047439;28;20128;-61
2023/09/28 07:04:01;;;;;;;21.47;5.97;;;;;;;;;;5047572;28;20404;-61
2023/09/28 07:06:27;;;;;;;19.73;5.63;;;;;;;;;;5047056;28;20049;-61
2023/09/28 07:08:53;;;;;;;22.77;5.60;;;;;;;;;;5047166;28;20132;-61
2023/09/28 07:11:19;;;;;;;21.33;5.20;;;;;;;;;;5047369;28;20132;-61
2023/09/28 07:13:46;;;;;;;23.67;5.33;;;;;;;;;;5047369;28;20128;-61
2023/09/28 07:16:12;;;;;;;16.87;5.60;;;;;;;;;;5049982;28;20052;-61
2023/09/28 07:18:38;;;;;;;15.80;4.43;;;;;;;;;;5051368;28;20466;-61
2023/09/28 07:21:04;;;;;;;25.70;5.27;;;;;;;;;;5054596;28;20125;-61
2023/09/28 07:23:30;;;;;;;26.83;6.00;;;;;;;;;;5051164;28;20487;-61
2023/09/28 07:25:56;;;;;;;19.73;5.60;;;;;;;;;;5051410;28;20108;-61
2023/09/28 07:28:22;;;;;;;21.00;5.27;;;;;;;;;;5050938;28;20047;-61
2023/09/28 07:30:48;;;;;;;16.47;4.50;;;;;;;;;;5050404;28;20248;-61
2023/09/28 07:33:15;;;;;;;20.60;6.40;;;;;;;;;;5054384;28;20068;-61
2023/09/28 07:35:45;;;;;;;21.63;5.50;;;;;;;;;;5070191;28;20071;-61
2023/09/28 07:38:11;;;;;;;19.30;5.47;;;;;;;;;;5070609;28;20135;-61
2023/09/28 07:40:37;;;;;;;24.57;6.30;;;;;;;;;;5070408;28;20094;-61
2023/09/28 07:43:03;;;;;;;22.17;4.77;;;;;;;;;;5070854;28;20087;-61
2023/09/28 07:45:30;;;;;;;24.70;5.57;;;;;;;;;;5070721;28;20576;-61
2023/09/28 07:47:56;;;;;;;21.47;5.33;;;;;;;;;;5067540;28;20388;-61
2023/09/28 07:50:22;;;;;;;24.20;5.00;;;;;;;;;;5070354;28;20043;-61
2023/09/28 07:52:48;;;;;;;29.93;5.27;;;;;;;;;;5070781;28;20056;-61
2023/09/28 07:55:14;;;;;;;27.20;7.03;;;;;;;;;;5068600;28;20048;-61
2023/09/28 07:57:40;;;;;;;26.17;5.97;;;;;;;;;;5049942;28;20047;-60
2023/09/28 08:00:07;;;;;;;23.23;5.50;;;;;;;;;;5050301;28;20099;-60
2023/09/28 08:02:33;;;;;;;18.87;4.60;;;;;;;;;;5050937;28;20438;-61
2023/09/28 08:05:01;;;;;;;20.37;5.43;;;;;;;;;;5050148;28;20084;-61
2023/09/28 08:07:30;;;;;;;19.03;4.73;;;;;;;;;;5067070;28;20123;-61
2023/09/28 08:09:56;;;;;;;20.07;5.03;;;;;;;;;;5068510;28;20821;-60
2023/09/28 08:12:22;;;;;;;22.97;5.00;;;;;;;;;;5069990;28;20076;-62
2023/09/28 08:14:48;;;;;;;20.90;5.10;;;;;;;;;;5069950;28;20414;-61
2023/09/28 08:17:14;;;;;;;27.97;5.50;;;;;;;;;;5060663;28;20052;-62
2023/09/28 08:19:40;;;;;;;21.77;5.40;;;;;;;;;;5058840;28;20502;-61
2023/09/28 08:22:06;;;;;;;25.80;5.37;;;;;;;;;;5065769;28;20067;-61
2023/09/28 08:24:32;;;;;;;23.30;4.63;;;;;;;;;;5066442;28;20657;-61
2023/09/28 08:26:58;;;;;;;25.77;5.37;;;;;;;;;;5056015;28;20049;-61
2023/09/28 08:29:24;;;;;;;22.10;5.27;;;;;;;;;;5071669;28;20055;-61
2023/09/28 08:31:51;;;;;;;28.47;5.50;;;;;;;;;;5055438;28;20447;-61
2023/09/28 08:34:17;;;;;;;22.17;5.03;;;;;;;;;;5058433;28;20060;-61
2023/09/28 08:36:44;;;;;;;29.00;5.53;;;;;;;;;;5068291;28;20032;-61
2023/09/28 08:39:10;;;;;;;21.50;4.87;;;;;;;;;;5070067;28;20139;-61
2023/09/28 08:41:47;;;;;;;25.13;5.10;;;;;;;;;;5069075;28;20044;-61
2023/09/28 08:44:14;;;;;;;21.77;4.57;;;;;;;;;;5068391;28;20054;-62
2023/09/28 08:46:40;;;;;;;23.13;5.47;;;;;;;;;;5068500;28;20051;-61
2023/09/28 08:49:11;;;;;;;26.20;6.20;;;;;;;;;;5054764;28;20041;-59
2023/09/28 08:51:40;;;;;;;21.73;5.43;;;;;;;;;;5059492;28;20056;-58
2023/09/28 08:54:06;;;;;;;23.90;6.10;;;;;;;;;;5067720;28;20044;-59
2023/09/28 08:56:50;;;;;;;28.50;5.80;;;;;;;;;;5068597;28;20041;-58
2023/09/28 08:59:17;;;;;;;27.43;5.17;;;;;;;;;;5068959;28;20060;-58
2023/09/28 09:01:43;;;;;;;28.63;6.17;;;;;;;;;;5068986;28;20048;-59
2023/09/28 09:04:09;;;;;;;24.60;5.30;;;;;;;;;;5067944;28;20127;-59
2023/09/28 09:06:35;;;;;;;25.17;5.87;;;;;;;;;;5052709;28;20083;-58
2023/09/28 09:09:03;;;;;;;26.87;5.67;;;;;;;;;;5069539;28;20045;-58
2023/09/28 09:11:30;;;;;;;24.73;6.37;;;;;;;;;;5068793;28;20078;-59
2023/09/28 09:13:56;;;;;;;27.43;6.33;;;;;;;;;;5067195;28;20045;-59
2023/09/28 09:16:23;;;;;;;26.30;5.93;;;;;;;;;;5067935;28;20078;-58
2023/09/28 09:18:49;;;;;;;29.07;5.67;;;;;;;;;;5062263;28;20045;-60
2023/09/28 09:21:15;;;;;;;26.60;5.63;;;;;;;;;;5067693;28;20568;-59
2023/09/28 09:23:41;;;;;;;26.30;6.07;;;;;;;;;;5062165;28;20083;-59
2023/09/28 09:26:17;;;;;;;27.33;5.53;;;;;;;;;;5068549;28;20423;-59
2023/09/28 09:28:43;;;;;;;28.17;5.70;;;;;;;;;;5067555;28;20044;-59
2023/09/28 09:31:10;;;;;;;27.87;6.20;;;;;;;;;;5068729;28;20130;-59
2023/09/28 09:33:36;;;;;;;26.60;5.10;;;;;;;;;;5068515;28;20052;-59
2023/09/28 09:36:02;;;;;;;24.07;4.63;;;;;;;;;;5069030;28;20049;-60
2023/09/28 09:38:29;;;;;;;22.63;5.77;;;;;;;;;;5065079;28;20132;-63
2023/09/28 09:40:59;;;;;;;23.83;4.90;;;;;;;;;;5048216;28;20075;-60
2023/09/28 09:43:25;;;;;;;19.17;4.70;;;;;;;;;;5048842;28;20126;-59
2023/09/28 09:45:51;;;;;;;25.50;5.80;;;;;;;;;;5048687;28;20044;-58
2023/09/28 09:48:17;;;;;;;25.40;5.20;;;;;;;;;;5048140;28;20537;-60
2023/09/28 09:50:44;;;;;;;20.83;4.20;;;;;;;;;;5048578;28;20127;-59
2023/09/28 09:53:09;;;;;;;23.63;5.60;;;;;;;;;;5048805;28;20056;-59
2023/09/28 09:55:43;;;;;;;24.07;5.33;;;;;;;;;;5048047;28;20045;-59
2023/09/28 09:58:12;;;;;;;27.53;6.17;;;;;;;;;;5048592;28;20055;-59
2023/09/28 10:00:38;;;;;;;24.73;6.33;;;;;;;;;;5048470;28;20044;-59
2023/09/28 10:03:05;;;;;;;24.30;5.97;;;;;;;;;;5048127;28;20053;-59
2023/09/28 10:05:34;;;;;;;25.23;4.87;;;;;;;;;;5048714;28;20045;-59
2023/09/28 10:08:01;;;;;;;25.97;4.97;;;;;;;;;;5048485;28;20056;-59
2023/09/28 10:10:27;;;;;;;23.13;5.23;;;;;;;;;;5048506;28;20045;-59
2023/09/28 10:12:55;;;;;;;26.90;5.90;;;;;;;;;;5049143;28;20045;-59
2023/09/28 10:15:21;;;;;;;25.23;5.43;;;;;;;;;;5047958;28;20041;-59
2023/09/28 10:17:48;;;;;;;20.33;5.33;;;;;;;;;;5047844;28;20056;-61
2023/09/28 10:20:14;;;;;;;20.23;4.50;;;;;;;;;;5066594;28;20106;-61
2023/09/28 10:22:47;;;;;;;22.97;5.17;;;;;;;;;;5067793;28;20051;-61
2023/09/28 10:25:13;;;;;;;22.38;4.75;;;;;;;;;;5068265;28;20409;-61
2023/09/28 10:27:43;;;;;;;18.27;4.50;;;;;;;;;;5068321;28;20044;-62
2023/09/28 10:30:16;;;;;;;20.50;4.30;;;;;;;;;;5060141;28;20048;-62
2023/09/28 10:32:42;;;;;;;24.40;6.30;;;;;;;;;;5048271;28;20049;-61
2023/09/28 10:35:21;;;;;;;21.77;4.63;;;;;;;;;;5047990;28;20408;-61
2023/09/28 10:38:06;;;;;;;19.97;4.60;;;;;;;;;;5048012;28;20057;-61
2023/09/28 10:40:34;;;;;;;22.27;4.40;;;;;;;;;;5048058;28;20053;-61
2023/09/28 10:43:13;;;;;;;17.70;4.97;;;;;;;;;;5047355;28;20671;-61
2023/09/28 10:45:39;;;;;;;21.40;4.60;;;;;;;;;;5048081;28;20060;-61
2023/09/28 10:48:06;;;;;;;19.83;4.93;;;;;;;;;;5048569;28;20044;-62
2023/09/28 10:50:36;;;;;;;21.93;5.30;;;;;;;;;;5050360;28;20056;-61
2023/09/28 10:53:02;;;;;;;17.90;3.73;;;;;;;;;;5052203;28;20037;-61
2023/09/28 10:55:28;;;;;;;24.30;4.93;;;;;;;;;;5052461;28;20037;-62
2023/09/28 10:57:54;;;;;;;21.10;5.03;;;;;;;;;;5051677;28;20484;-59
2023/09/28 11:00:23;;;;;;;18.33;3.97;;;;;;;;;;5052069;28;20048;-59
2023/09/28 11:02:49;;;;;;;18.50;4.40;;;;;;;;;;5051972;28;20486;-59
2023/09/28 11:05:15;;;;;;;19.33;4.17;;;;;;;;;;5052572;28;20076;-59
2023/09/28 11:07:41;;;;;;;22.70;4.63;;;;;;;;;;5051630;28;20127;-61
2023/09/28 11:10:08;;;;;;;20.23;5.23;;;;;;;;;;5051622;28;20499;-61
2023/09/28 11:12:34;;;;;;;19.93;4.67;;;;;;;;;;5069560;28;20045;-61
2023/09/28 11:15:01;;;;;;;18.33;4.13;;;;;;;;;;5065296;28;20072;-62
2023/09/28 11:17:27;;;;;;;22.17;5.50;;;;;;;;;;5059774;28;20105;-61
2023/09/28 11:19:56;;;;;;;19.23;4.33;;;;;;;;;;5056196;28;20045;-62
2023/09/28 11:22:22;;;;;;;17.90;4.00;;;;;;;;;;5059842;28;20117;-62
2023/09/28 11:24:48;;;;;;;19.00;4.00;;;;;;;;;;5057006;28;20412;-62
2023/09/28 11:27:14;;;;;;;24.43;5.27;;;;;;;;;;5067347;28;20043;-61
2023/09/28 11:29:41;;;;;;;22.30;4.60;;;;;;;;;;5067392;28;20048;-62
2023/09/28 11:32:07;;;;;;;20.53;4.50;;;;;;;;;;5059483;28;20049;-61
2023/09/28 11:34:38;;;;;;;22.83;4.80;;;;;;;;;;5059435;28;20036;-62
2023/09/28 11:37:09;;;;;;;22.97;5.43;;;;;;;;;;5064094;28;20053;-61
2023/09/28 11:39:36;;;;;;;22.97;4.90;;;;;;;;;;5054850;28;20525;-62
2023/09/28 11:42:04;;;;;;;22.87;5.03;;;;;;;;;;5058041;28;20051;-62
2023/09/28 11:44:30;;;;;;;30.83;6.13;;;;;;;;;;5065131;28;20044;-61
2023/09/28 11:46:56;;;;;;;23.40;5.13;;;;;;;;;;5066202;28;20040;-61
2023/09/28 11:49:23;;;;;;;26.10;5.10;;;;;;;;;;5070168;28;20063;-61
2023/09/28 11:51:52;;;;;;;20.37;4.37;;;;;;;;;;5069586;28;20048;-62
2023/09/28 11:54:18;;;;;;;17.00;5.60;;;;;;;;;;5068007;28;20056;-61
2023/09/28 11:56:44;;;;;;;17.67;5.67;;;;;;;;;;5053594;28;20042;-62
2023/09/28 11:59:20;;;;;;;19.37;4.57;;;;;;;;;;5070964;28;20149;-61
2023/09/28 12:01:46;;;;;;;19.93;4.60;;;;;;;;;;5054664;28;20044;-61
2023/09/28 12:04:12;;;;;;;16.90;4.80;;;;;;;;;;5069915;28;20040;-62
2023/09/28 12:06:39;;;;;;;24.33;5.13;;;;;;;;;;5069511;28;20498;-61
2023/09/28 12:09:06;;;;;;;20.13;4.77;;;;;;;;;;5069064;28;20498;-61
2023/09/28 12:11:33;;;;;;;19.73;5.00;;;;;;;;;;5067981;28;20178;-62
2023/09/28 12:13:59;;;;;;;15.63;4.07;;;;;;;;;;5067082;28;20052;-59
2023/09/28 12:16:26;;;;;;;20.57;5.93;;;;;;;;;;5069070;28;20127;-59
2023/09/28 12:18:52;;;;;;;23.10;5.45;;;;;;;;;;5069481;28;20048;-59
2023/09/28 12:21:18;;;;;;;15.10;4.03;;;;;;;;;;5067820;28;20164;-59
2023/09/28 12:23:44;;;;;;;17.83;4.35;;;;;;;;;;5067386;28;21866;-59
2023/09/28 12:26:11;;;;;;;20.02;5.80;;;;;;;;;;5056433;28;20037;-59
2023/09/28 12:28:37;;;;;;;19.45;5.45;;;;;;;;;;5065497;28;20503;-59
2023/09/28 12:31:04;;;;;;;27.33;5.55;;;;;;;;;;5062209;28;20056;-60
2023/09/28 12:33:30;;;;;;;20.33;4.47;;;;;;;;;;5070108;28;20114;-59
2023/09/28 12:35:58;;;;;;;18.77;4.97;;;;;;;;;;5068863;28;20071;-59
2023/09/28 12:38:24;;;;;;;22.55;5.32;;;;;;;;;;5068947;28;20064;-59
2023/09/28 12:40:50;;;;;;;23.77;5.03;;;;;;;;;;5069257;28;20047;-59
2023/09/28 12:43:16;;;;;;;20.27;4.57;;;;;;;;;;5069288;28;20425;-59
2023/09/28 12:45:43;;;;;;;20.55;4.70;;;;;;;;;;5068898;28;20554;-59
2023/09/28 12:48:10;;;;;;;18.85;4.90;;;;;;;;;;5069961;28;20052;-59
2023/09/28 12:50:37;;;;;;;19.45;4.78;;;;;;;;;;5069114;28;20041;-59
2023/09/28 12:53:03;;;;;;;20.60;4.32;;;;;;;;;;5067764;28;20056;-59
2023/09/28 12:55:29;;;;;;;19.90;5.38;;;;;;;;;;5068122;28;20565;-59
2023/09/28 12:57:57;;;;;;;22.23;5.85;;;;;;;;;;5067021;28;20044;-59
2023/09/28 13:00:25;;;;;;;17.67;4.63;;;;;;;;;;5065677;28;20059;-59
2023/09/28 13:02:51;;;;;;;23.20;5.18;;;;;;;;;;5067215;28;21097;-59
2023/09/28 13:05:18;;;;;;;20.80;4.95;;;;;;;;;;5067218;28;20491;-59
2023/09/28 13:07:44;;;;;;;30.60;5.43;;;;;;;;;;5067083;28;20456;-59
2023/09/28 13:10:16;;;;;;;23.35;5.35;;;;;;;;;;5067948;28;20043;-59
2023/09/28 13:12:43;;;;;;;17.95;5.10;;;;;;;;;;5067281;28;20040;-59
2023/09/28 13:15:13;;;;;;;21.65;5.25;;;;;;;;;;5068963;28;20040;-59
2023/09/28 13:17:39;;;;;;;20.88;5.22;;;;;;;;;;5068710;28;20053;-59
2023/09/28 13:20:08;;;;;;;21.65;4.80;;;;;;;;;;5068016;28;20522;-59
2023/09/28 13:22:36;;;;;;;20.83;5.00;;;;;;;;;;5068523;28;20044;-62
2023/09/28 13:25:04;;;;;;;23.92;5.15;;;;;;;;;;5068677;28;20094;-62
2023/09/28 13:27:30;;;;;;;22.27;4.80;;;;;;;;;;5068701;28;20564;-59
2023/09/28 13:30:00;;;;;;;22.42;4.82;;;;;;;;;;5068744;28;20045;-61
2023/09/28 13:32:27;;;;;;;21.02;5.40;;;;;;;;;;5068145;28;20045;-59
2023/09/28 13:34:53;;;;;;;17.67;4.47;;;;;;;;;;5068600;28;20041;-61
2023/09/28 13:37:21;;;;;;;16.93;4.10;;;;;;;;;;5068386;28;20508;-62
2023/09/28 13:39:47;;;;;;;23.93;4.57;;;;;;;;;;5068374;28;20426;-62
2023/09/28 13:42:13;;;;;;;20.20;5.57;;;;;;;;;;5068589;28;20053;-61
2023/09/28 13:44:39;;;;;;;18.50;5.00;;;;;;;;;;5068208;28;20365;-61
2023/09/28 13:47:07;;;;;;;19.73;4.57;;;;;;;;;;5068503;28;20040;-61
2023/09/28 13:49:33;;;;;;;18.50;4.73;;;;;;;;;;5068208;28;20047;-61
2023/09/28 13:51:59;;;;;;;17.40;4.00;;;;;;;;;;5068277;28;20041;-61
2023/09/28 13:54:29;;;;;;;22.27;4.83;;;;;;;;;;5068265;28;20051;-61
2023/09/28 13:56:59;;;;;;;18.33;4.50;;;;;;;;;;5068764;28;20094;-61
2023/09/28 13:59:25;;;;;;;17.57;4.77;;;;;;;;;;5068825;28;20123;-61
2023/09/28 14:01:52;;;;;;;17.23;4.70;;;;;;;;;;5068215;28;20102;-61
2023/09/28 14:04:18;;;;;;;16.07;4.17;;;;;;;;;;5068511;28;20052;-61
2023/09/28 14:06:44;;;;;;;18.10;4.10;;;;;;;;;;5068679;28;20048;-61
2023/09/28 14:09:11;;;;;;;19.53;4.20;;;;;;;;;;5068606;28;20055;-60
2023/09/28 14:11:41;;;;;;;22.60;4.87;;;;;;;;;;5068578;28;20102;-61
2023/09/28 14:14:09;;;;;;;19.43;4.07;;;;;;;;;;5067980;28;20055;-62
2023/09/28 14:16:37;;;;;;;18.83;3.77;;;;;;;;;;5068527;28;20044;-61
2023/09/28 14:19:03;;;;;;;24.77;4.93;;;;;;;;;;5059484;28;20049;-61
2023/09/28 14:21:30;;;;;;;17.43;3.90;;;;;;;;;;5048275;28;20128;-61
2023/09/28 14:23:59;;;;;;;25.70;5.37;;;;;;;;;;5049372;28;20693;-61
2023/09/28 14:26:25;;;;;;;23.83;4.47;;;;;;;;;;5048173;28;20045;-61
2023/09/28 14:28:51;;;;;;;21.33;5.17;;;;;;;;;;5067068;28;20044;-61